Time;durP1;ratioP1;P1;durP2;ratioP2;P2;SDS_P1;SDS_P2;PMS_P1;PMS_P2;Temp;Humidity;BMP_temperature;BMP_pressure;BME280_temperature;BME280_humidity;BME280_pressure;Samples;Min_cycle;Max_cycle;Signal;HPM_P1;HPM_P2
2022/11/19 00:00:44;;;;;;;1.80;1.20;;;;;;;7.29;100.00;99634.06;4927106;29;20024;-85
2022/11/19 00:03:11;;;;;;;2.35;1.00;;;;;;;7.32;100.00;99637.19;4927574;29;20042;-86
2022/11/19 00:05:45;;;;;;;4.32;1.45;;;;;;;7.26;100.00;99634.34;4924903;29;20031;-86
2022/11/19 00:08:12;;;;;;;2.80;1.65;;;;;;;7.26;100.00;99635.16;4925221;29;20031;-85
2022/11/19 00:10:38;;;;;;;2.28;1.15;;;;;;;7.26;100.00;99649.91;4925885;29;20047;-85
2022/11/19 00:13:06;;;;;;;1.73;0.80;;;;;;;7.31;100.00;99642.50;4926762;29;20276;-86
2022/11/19 00:15:36;;;;;;;2.28;1.10;;;;;;;7.36;100.00;99642.09;4926553;29;20055;-85
2022/11/19 00:18:03;;;;;;;3.13;1.23;;;;;;;7.40;100.00;99640.84;4921415;28;20035;-85
2022/11/19 00:20:29;;;;;;;3.40;1.40;;;;;;;7.36;100.00;99644.69;4924830;29;20098;-86
2022/11/19 00:22:59;;;;;;;2.67;1.40;;;;;;;7.33;100.00;99640.59;4926506;29;20040;-86
2022/11/19 00:25:26;;;;;;;1.80;1.10;;;;;;;7.30;100.00;99652.06;4924408;29;20044;-85
2022/11/19 00:27:52;;;;;;;2.40;1.30;;;;;;;7.33;100.00;99650.97;4927434;29;20027;-85
2022/11/19 00:30:18;;;;;;;3.13;1.73;;;;;;;7.34;100.00;99652.59;4925415;29;20086;-85
2022/11/19 00:32:44;;;;;;;2.88;1.05;;;;;;;7.38;100.00;99660.91;4925500;29;20058;-85
2022/11/19 00:35:10;;;;;;;3.67;1.40;;;;;;;7.39;100.00;99663.34;4926786;29;20191;-86
2022/11/19 00:37:36;;;;;;;3.75;1.33;;;;;;;7.37;100.00;99660.09;4925747;29;20135;-85
2022/11/19 00:40:01;;;;;;;2.67;1.13;;;;;;;7.39;100.00;99657.34;4923166;29;20134;-85
2022/11/19 00:42:27;;;;;;;3.65;1.40;;;;;;;7.44;100.00;99652.56;4926533;29;20035;-86
2022/11/19 00:44:52;;;;;;;3.78;1.10;;;;;;;7.50;100.00;99642.44;4926432;29;20496;-85
2022/11/19 00:47:18;;;;;;;4.53;1.63;;;;;;;7.48;100.00;99646.94;4926391;29;20039;-85
2022/11/19 00:49:43;;;;;;;2.38;1.05;;;;;;;7.47;100.00;99649.69;4924348;29;20031;-85
2022/11/19 00:52:09;;;;;;;1.98;1.02;;;;;;;7.43;100.00;99656.94;4927232;28;20079;-86
2022/11/19 00:54:34;;;;;;;3.78;1.40;;;;;;;7.38;100.00;99653.94;4925842;28;20035;-85
2022/11/19 00:57:00;;;;;;;3.28;1.00;;;;;;;7.30;100.00;99652.06;4926202;28;20042;-86
2022/11/19 00:59:25;;;;;;;2.83;1.67;;;;;;;7.28;100.00;99659.16;4926908;29;20065;-85
2022/11/19 01:01:51;;;;;;;3.17;1.63;;;;;;;7.26;100.00;99660.25;4926606;29;20051;-85
2022/11/19 01:04:16;;;;;;;1.98;1.00;;;;;;;7.26;100.00;99655.91;4924517;29;20087;-85
2022/11/19 01:06:42;;;;;;;4.10;1.40;;;;;;;7.24;100.00;99655.22;4924729;28;20051;-85
2022/11/19 01:09:07;;;;;;;2.30;0.73;;;;;;;7.21;100.00;99665.88;4927491;29;20046;-85
2022/11/19 01:11:35;;;;;;;2.75;1.20;;;;;;;7.20;100.00;99660.84;4925398;29;20044;-85
2022/11/19 01:14:01;;;;;;;2.08;0.93;;;;;;;7.19;100.00;99659.19;4926182;29;20043;-86
2022/11/19 01:16:35;;;;;;;2.08;1.10;;;;;;;7.22;100.00;99656.31;4926124;28;20027;-85
2022/11/19 01:19:01;;;;;;;2.35;1.42;;;;;;;7.24;100.00;99657.00;4928274;29;20516;-85
2022/11/19 01:21:29;;;;;;;2.80;1.52;;;;;;;7.26;100.00;99666.25;4925761;29;20031;-85
2022/11/19 01:23:56;;;;;;;2.92;1.33;;;;;;;7.25;100.00;99653.44;4933184;28;20476;-85
2022/11/19 01:26:22;;;;;;;5.90;2.53;;;;;;;7.04;100.00;99671.00;4924325;29;20035;-85
2022/11/19 01:28:48;;;;;;;6.88;2.40;;;;;;;6.79;100.00;99665.47;4926758;29;20134;-85
2022/11/19 01:31:22;;;;;;;4.32;3.20;;;;;;;6.68;100.00;99657.84;4923928;29;20039;-85
2022/11/19 01:33:48;;;;;;;3.67;2.97;;;;;;;6.56;100.00;99671.91;4920230;28;20074;-85
2022/11/19 01:36:20;;;;;;;6.07;3.42;;;;;;;6.47;100.00;99664.97;4923044;29;20031;-84
2022/11/19 01:38:49;;;;;;;3.88;2.40;;;;;;;6.41;100.00;99674.09;4923723;29;20138;-85
2022/11/19 01:41:17;;;;;;;7.40;4.03;;;;;;;6.37;100.00;99671.91;4924823;29;20040;-85
2022/11/19 01:43:45;;;;;;;6.68;2.88;;;;;;;6.50;100.00;99667.28;4922068;29;20043;-85
2022/11/19 01:46:13;;;;;;;4.00;1.85;;;;;;;6.72;100.00;99671.34;4924371;28;20044;-85
2022/11/19 01:48:45;;;;;;;2.75;1.38;;;;;;;6.87;100.00;99662.19;4925844;29;20035;-85
2022/11/19 01:51:13;;;;;;;3.40;1.23;;;;;;;6.93;100.00;99659.84;4921845;29;20495;-86
2022/11/19 01:53:39;;;;;;;1.95;1.02;;;;;;;6.91;100.00;99666.13;4926623;29;20034;-86
2022/11/19 01:56:06;;;;;;;2.67;1.58;;;;;;;6.91;100.00;99677.28;4926327;29;20055;-86
2022/11/19 01:58:45;;;;;;;2.50;1.40;;;;;;;6.92;100.00;99675.53;4928888;29;20042;-85
2022/11/19 02:01:10;;;;;;;2.47;1.20;;;;;;;6.95;100.00;99683.84;4927894;28;20049;-86
2022/11/19 02:03:38;;;;;;;2.55;1.42;;;;;;;7.03;100.00;99677.94;4927582;29;20032;-85
2022/11/19 02:06:05;;;;;;;2.83;1.08;;;;;;;7.09;100.00;99684.34;4928854;29;20039;-85
2022/11/19 02:08:42;;;;;;;3.42;1.27;;;;;;;7.09;100.00;99685.13;4926576;29;20040;-85
2022/11/19 02:11:26;;;;;;;3.20;1.15;;;;;;;7.12;100.00;99699.56;4928084;29;20039;-85
2022/11/19 02:14:20;;;;;;;2.45;1.65;;;;;;;7.11;100.00;99693.59;4929055;29;20062;-85
2022/11/19 02:17:09;;;;;;;3.22;1.67;;;;;;;7.15;100.00;99694.13;4924794;29;20126;-85
2022/11/19 02:19:44;;;;;;;5.55;1.85;;;;;;;7.18;100.00;99696.44;4927852;29;20043;-86
2022/11/19 02:22:35;;;;;;;2.92;1.15;;;;;;;7.24;100.00;99701.03;4928039;29;20032;-86
2022/11/19 02:25:24;;;;;;;2.50;1.58;;;;;;;7.28;100.00;99694.63;4926838;29;20075;-86
2022/11/19 02:28:27;;;;;;;1.63;0.77;;;;;;;7.25;100.00;99702.69;4930235;29;20124;-85
2022/11/19 02:31:00;;;;;;;1.85;0.90;;;;;;;7.23;100.00;99707.19;4928485;29;20398;-85
2022/11/19 02:33:39;;;;;;;1.92;1.05;;;;;;;7.17;100.00;99707.75;4929345;29;20036;-86
2022/11/19 02:36:22;;;;;;;4.10;1.20;;;;;;;7.16;100.00;99711.28;4927949;29;20047;-86
2022/11/19 02:39:08;;;;;;;4.60;0.93;;;;;;;7.18;100.00;99704.19;4926309;29;20111;-85
2022/11/19 02:41:43;;;;;;;2.50;0.77;;;;;;;7.16;100.00;99706.13;4921947;29;20099;-86
2022/11/19 02:47:12;;;;;;;2.33;0.93;;;;;;;7.14;100.00;99703.66;4928064;29;20473;-85
2022/11/19 02:49:42;;;;;;;2.92;0.85;;;;;;;7.17;100.00;99705.16;4928897;29;20082;-85
2022/11/19 02:52:08;;;;;;;1.75;0.70;;;;;;;7.18;100.00;99699.84;4940678;28;20044;-85
2022/11/19 02:54:33;;;;;;;2.45;0.90;;;;;;;7.19;100.00;99698.88;4926523;29;20043;-85
2022/11/19 02:56:59;;;;;;;4.07;0.95;;;;;;;7.23;100.00;99702.81;4928418;29;20122;-85
2022/11/19 03:04:57;;;;;;;3.13;1.30;;;;;;;7.17;100.00;99699.97;4928795;29;20058;-85
2022/11/19 03:07:23;;;;;;;2.15;0.65;;;;;;;7.16;100.00;99706.13;4926436;28;20019;-85
2022/11/19 03:09:55;;;;;;;1.45;0.77;;;;;;;7.16;100.00;99712.09;4923868;29;20043;-86
2022/11/19 03:12:33;;;;;;;2.78;0.90;;;;;;;7.18;100.00;99705.00;4925591;29;20114;-85
2022/11/19 03:18:11;;;;;;;3.95;0.90;;;;;;;7.28;100.00;99710.16;4927383;29;20498;-84
2022/11/19 03:20:47;;;;;;;6.13;2.33;;;;;;;7.08;100.00;99717.22;4919094;29;20032;-85
2022/11/19 03:23:38;;;;;;;3.80;1.33;;;;;;;7.10;100.00;99722.22;4927883;29;20491;-85
2022/11/19 03:26:12;;;;;;;3.67;2.60;;;;;;;6.97;100.00;99718.19;4922338;29;20043;-85
2022/11/19 03:28:38;;;;;;;4.22;3.00;;;;;;;6.86;100.00;99730.47;4927746;29;20455;-85
2022/11/19 03:31:04;;;;;;;3.03;0.95;;;;;;;6.93;100.00;99724.59;4927060;29;20074;-85
2022/11/19 03:33:34;;;;;;;2.35;1.52;;;;;;;7.01;100.00;99725.66;4925359;28;21425;-85
2022/11/19 03:36:06;;;;;;;2.90;1.58;;;;;;;7.07;100.00;99712.97;4922480;29;20123;-85
2022/11/19 03:38:38;;;;;;;3.80;1.30;;;;;;;7.09;100.00;99711.03;4885861;29;1130457;-86
2022/11/19 03:41:05;;;;;;;1.75;1.13;;;;;;;7.09;100.00;99715.44;4941592;28;20494;-85
2022/11/19 03:43:37;;;;;;;3.67;1.20;;;;;;;7.08;100.00;99713.78;4920710;29;20453;-85
2022/11/19 03:46:05;;;;;;;4.55;1.50;;;;;;;7.07;100.00;99719.94;4922546;29;20457;-85
2022/11/19 03:48:31;;;;;;;1.42;0.95;;;;;;;7.08;100.00;99714.63;4928620;29;20040;-85
2022/11/19 03:51:11;;;;;;;2.22;1.08;;;;;;;7.09;100.00;99720.63;4927183;28;20027;-85
2022/11/19 03:53:36;;;;;;;3.38;0.95;;;;;;;7.04;100.00;99733.16;4927384;29;20531;-85
2022/11/19 03:56:08;;;;;;;2.42;1.00;;;;;;;7.00;100.00;99724.84;4922674;29;20043;-85
2022/11/19 03:58:43;;;;;;;3.60;1.10;;;;;;;6.98;100.00;99714.63;4924269;29;20148;-85
2022/11/19 04:01:09;;;;;;;4.00;0.90;;;;;;;6.95;100.00;99717.50;4927386;28;20035;-85
2022/11/19 04:03:35;;;;;;;2.08;1.10;;;;;;;6.93;100.00;99722.00;4927267;29;20111;-85
2022/11/19 04:06:01;;;;;;;1.95;0.98;;;;;;;6.97;100.00;99727.72;4929040;28;20123;-85
2022/11/19 04:08:26;;;;;;;2.47;1.00;;;;;;;6.95;100.00;99727.84;4920282;29;20118;-85
2022/11/19 04:10:52;;;;;;;3.30;1.02;;;;;;;6.95;100.00;99730.44;4927560;29;20040;-85
2022/11/19 04:13:17;;;;;;;2.33;0.90;;;;;;;6.94;100.00;99728.81;4927555;29;20059;-85
2022/11/19 04:15:43;;;;;;;2.85;1.25;;;;;;;6.92;100.00;99730.72;4927395;28;20446;-85
2022/11/19 04:18:08;;;;;;;2.92;1.10;;;;;;;6.92;100.00;99733.31;4924819;29;20395;-85
2022/11/19 04:20:34;;;;;;;3.05;1.77;;;;;;;6.92;100.00;99727.31;4927270;29;20370;-85
2022/11/19 04:22:59;;;;;;;2.20;1.33;;;;;;;6.96;100.00;99736.44;4926518;29;20032;-84
2022/11/19 04:25:25;;;;;;;2.28;1.25;;;;;;;7.01;100.00;99730.84;4925475;28;20035;-85
2022/11/19 04:27:50;;;;;;;3.50;1.08;;;;;;;7.02;100.00;99727.31;4927167;29;20128;-85
2022/11/19 04:30:16;;;;;;;4.70;1.42;;;;;;;7.06;100.00;99731.25;4931441;29;20041;-85
2022/11/19 04:32:42;;;;;;;3.25;1.08;;;;;;;7.10;100.00;99732.56;4926521;29;20032;-85
2022/11/19 04:35:08;;;;;;;4.05;1.00;;;;;;;7.04;100.00;99733.97;4927773;29;20039;-85
2022/11/19 04:37:33;;;;;;;3.25;0.90;;;;;;;7.12;100.00;99725.47;4926117;29;20038;-85
2022/11/19 04:39:59;;;;;;;2.25;0.70;;;;;;;7.15;100.00;99723.44;4926171;29;20626;-85
2022/11/19 04:42:24;;;;;;;1.60;1.30;;;;;;;7.17;100.00;99720.69;4924429;29;20509;-85
2022/11/19 04:44:50;;;;;;;1.90;0.70;;;;;;;7.19;100.00;99731.75;4925073;29;20036;-85
2022/11/19 04:47:15;;;;;;;3.33;0.90;;;;;;;7.20;100.00;99728.19;4934586;28;20460;-85
2022/11/19 04:49:40;;;;;;;2.63;0.82;;;;;;;7.20;100.00;99731.59;4921237;29;20451;-85
2022/11/19 04:52:06;;;;;;;3.00;1.10;;;;;;;7.12;100.00;99731.47;4930011;29;20043;-85
2022/11/19 04:54:31;;;;;;;2.80;1.05;;;;;;;7.07;100.00;99738.88;4930855;29;20038;-85
2022/11/19 04:56:57;;;;;;;1.67;0.70;;;;;;;7.05;100.00;99750.34;4932279;29;20042;-85
2022/11/19 04:59:22;;;;;;;4.10;1.17;;;;;;;7.08;100.00;99755.25;4927786;29;20046;-85
2022/11/19 05:01:48;;;;;;;3.05;1.10;;;;;;;7.11;100.00;99754.94;4925580;29;20043;-86
2022/11/19 05:04:13;;;;;;;2.17;0.77;;;;;;;7.18;100.00;99758.59;4927340;29;20035;-85
2022/11/19 05:06:39;;;;;;;2.95;0.93;;;;;;;7.17;100.00;99760.38;4922952;28;20109;-85
2022/11/19 05:09:04;;;;;;;3.38;0.70;;;;;;;7.25;100.00;99762.28;4925879;29;20038;-85
2022/11/19 05:11:30;;;;;;;2.28;1.30;;;;;;;7.17;100.00;99767.34;4923844;28;20499;-84
2022/11/19 05:13:55;;;;;;;4.93;1.48;;;;;;;7.01;100.00;99767.94;4923541;29;20137;-85
2022/11/19 05:16:21;;;;;;;2.42;1.25;;;;;;;6.86;100.00;99758.94;4926124;29;20039;-85
2022/11/19 05:18:46;;;;;;;3.22;2.03;;;;;;;6.78;100.00;99763.97;4924792;29;20028;-85
2022/11/19 05:21:11;;;;;;;2.55;1.95;;;;;;;6.65;100.00;99761.66;4926575;29;20038;-84
2022/11/19 05:23:37;;;;;;;2.20;1.90;;;;;;;6.51;100.00;99757.72;4928935;29;20028;-85
2022/11/19 05:26:02;;;;;;;3.50;1.60;;;;;;;6.36;100.00;99748.72;4926312;29;20043;-85
2022/11/19 05:28:30;;;;;;;3.38;1.38;;;;;;;6.51;100.00;99746.56;4924447;29;20119;-85
2022/11/19 05:30:55;;;;;;;3.53;1.90;;;;;;;6.60;100.00;99750.94;4928162;29;20032;-85
2022/11/19 05:33:21;;;;;;;2.47;1.20;;;;;;;6.59;100.00;99755.28;4943380;28;20408;-85
2022/11/19 05:35:47;;;;;;;2.17;1.20;;;;;;;6.82;100.00;99752.41;4932051;29;20076;-85
2022/11/19 05:38:12;;;;;;;2.75;1.42;;;;;;;6.91;100.00;99760.16;4927579;29;20040;-85
2022/11/19 05:40:37;;;;;;;1.55;1.02;;;;;;;6.94;100.00;99772.03;4942865;28;22401;-85
2022/11/19 05:43:05;;;;;;;4.40;1.55;;;;;;;6.92;100.00;99766.97;4929271;29;20034;-84
2022/11/19 05:45:31;;;;;;;1.73;1.33;;;;;;;6.89;100.00;99766.44;4928877;29;20043;-85
2022/11/19 05:47:56;;;;;;;3.92;1.27;;;;;;;6.88;100.00;99775.97;4929604;28;20032;-85
2022/11/19 05:50:22;;;;;;;2.55;1.30;;;;;;;6.84;100.00;99774.63;4927164;28;20491;-85
2022/11/19 05:52:47;;;;;;;3.92;1.08;;;;;;;6.89;100.00;99776.78;4930391;29;20122;-85
2022/11/19 05:55:13;;;;;;;3.78;1.35;;;;;;;6.95;100.00;99776.25;4927383;29;20114;-85
2022/11/19 05:57:38;;;;;;;2.95;1.52;;;;;;;7.01;100.00;99774.88;4928835;29;20034;-85
2022/11/19 06:00:04;;;;;;;2.85;1.55;;;;;;;7.08;100.00;99779.38;4929190;29;20746;-85
2022/11/19 06:02:30;;;;;;;3.30;1.83;;;;;;;7.12;100.00;99772.13;4928632;29;20036;-86
2022/11/19 06:04:56;;;;;;;2.55;1.80;;;;;;;7.09;100.00;99767.25;4931156;28;20032;-85
2022/11/19 06:07:21;;;;;;;3.88;1.73;;;;;;;7.05;100.00;99776.25;4926346;29;20126;-85
2022/11/19 06:09:47;;;;;;;5.38;2.20;;;;;;;7.02;100.00;99779.09;4928989;29;20031;-85
2022/11/19 06:12:12;;;;;;;3.25;1.73;;;;;;;6.96;100.00;99778.69;4929190;29;20116;-84
2022/11/19 06:14:37;;;;;;;4.38;2.08;;;;;;;6.96;100.00;99768.34;4928956;29;20050;-85
2022/11/19 06:17:03;;;;;;;2.83;1.50;;;;;;;7.06;100.00;99772.69;4928020;29;20399;-84
2022/11/19 06:19:28;;;;;;;7.78;2.47;;;;;;;7.06;100.00;99778.69;4923980;29;20063;-85
2022/11/19 06:21:54;;;;;;;6.25;2.00;;;;;;;7.06;100.00;99777.88;4929745;29;20075;-85
2022/11/19 06:24:20;;;;;;;5.32;2.55;;;;;;;7.05;100.00;99778.81;4928436;29;20071;-85
2022/11/19 06:26:45;;;;;;;4.25;1.77;;;;;;;7.05;100.00;99791.78;4929893;29;20054;-85
2022/11/19 06:29:15;;;;;;;5.65;1.70;;;;;;;7.00;100.00;99794.78;4926919;28;20057;-85
2022/11/19 06:31:41;;;;;;;2.28;1.67;;;;;;;6.98;100.00;99799.28;4926021;29;20111;-85
2022/11/19 06:34:06;;;;;;;3.70;1.63;;;;;;;6.97;100.00;99810.59;4927018;29;20035;-85
2022/11/19 06:36:32;;;;;;;2.72;1.60;;;;;;;7.06;100.00;99812.38;4926064;29;20038;-84
2022/11/19 06:38:57;;;;;;;3.30;1.30;;;;;;;7.11;100.00;99811.91;4922710;29;20051;-85
2022/11/19 06:41:23;;;;;;;3.50;1.48;;;;;;;7.13;100.00;99810.84;4927867;28;20047;-84
2022/11/19 06:43:48;;;;;;;2.17;1.27;;;;;;;7.18;100.00;99815.59;4931020;29;20036;-85
2022/11/19 06:46:14;;;;;;;2.72;1.75;;;;;;;7.16;100.00;99815.75;4924645;28;20109;-85
2022/11/19 06:48:40;;;;;;;2.20;1.40;;;;;;;7.14;100.00;99814.25;4927310;28;20047;-85
2022/11/19 06:51:06;;;;;;;2.55;1.58;;;;;;;7.09;100.00;99808.69;4928000;28;20039;-85
2022/11/19 06:53:32;;;;;;;2.75;1.55;;;;;;;7.09;100.00;99816.44;4927427;29;20032;-85
2022/11/19 06:56:00;;;;;;;2.80;1.42;;;;;;;7.09;100.00;99824.22;4928048;29;20031;-85
2022/11/19 06:58:26;;;;;;;2.28;1.40;;;;;;;7.07;100.00;99820.94;4927546;29;20091;-84
2022/11/19 07:00:52;;;;;;;2.53;1.77;;;;;;;7.13;100.00;99825.56;4929035;29;20038;-85
2022/11/19 07:03:18;;;;;;;4.40;1.55;;;;;;;7.19;100.00;99827.59;4927369;29;20019;-84
2022/11/19 07:05:43;;;;;;;2.28;1.23;;;;;;;7.26;100.00;99831.28;4924981;29;20040;-85
2022/11/19 07:08:09;;;;;;;1.77;0.77;;;;;;;7.33;100.00;99847.91;4927890;29;20044;-85
2022/11/19 07:10:34;;;;;;;2.15;1.08;;;;;;;7.37;100.00;99833.72;4925711;29;20062;-85
2022/11/19 07:13:00;;;;;;;3.03;1.10;;;;;;;7.40;100.00;99843.00;4927441;29;20127;-85
2022/11/19 07:15:26;;;;;;;2.08;1.25;;;;;;;7.38;100.00;99843.13;4927916;29;20035;-85
2022/11/19 07:17:52;;;;;;;2.28;1.23;;;;;;;7.40;100.00;99846.41;4927220;29;20047;-85
2022/11/19 07:20:17;;;;;;;2.00;1.20;;;;;;;7.40;100.00;99849.00;4925281;29;20043;-85
2022/11/19 07:22:43;;;;;;;2.33;1.52;;;;;;;7.38;100.00;99845.72;4927501;29;20024;-85
2022/11/19 07:25:12;;;;;;;4.20;1.67;;;;;;;7.38;100.00;99850.91;4928394;28;20035;-85
2022/11/19 07:27:39;;;;;;;2.25;1.13;;;;;;;7.42;100.00;99857.44;4925773;29;20500;-85
2022/11/19 07:30:06;;;;;;;1.60;1.40;;;;;;;7.42;100.00;99854.03;4927493;29;20039;-85
2022/11/19 07:32:32;;;;;;;3.22;1.17;;;;;;;7.45;100.00;99867.53;4927336;29;20031;-85
2022/11/19 07:34:57;;;;;;;1.73;0.90;;;;;;;7.51;100.00;99861.81;4932439;29;20035;-85
2022/11/19 07:37:23;;;;;;;3.47;1.10;;;;;;;7.56;100.00;99857.00;4931300;29;20035;-85
2022/11/19 07:39:48;;;;;;;6.13;1.90;;;;;;;7.54;100.00;99860.72;4933658;29;20483;-85
2022/11/19 07:44:58;;;;;;;2.55;1.17;;;;;;;7.43;100.00;99858.25;4932552;29;20043;-85
2022/11/19 07:47:23;;;;;;;2.28;1.20;;;;;;;7.44;100.00;99865.09;4932418;29;20028;-85
2022/11/19 07:49:48;;;;;;;2.63;1.00;;;;;;;7.49;100.00;99870.69;4931955;29;20367;-85
2022/11/19 07:52:14;;;;;;;3.53;1.25;;;;;;;7.56;100.00;99869.94;4929597;29;20020;-84
2022/11/19 07:54:39;;;;;;;3.72;1.15;;;;;;;7.61;100.00;99872.94;4929527;29;20090;-85
2022/11/19 07:57:05;;;;;;;2.08;1.10;;;;;;;7.61;100.00;99864.34;4930715;29;20383;-85
2022/11/19 07:59:30;;;;;;;1.05;0.65;;;;;;;7.62;100.00;99869.41;4931282;29;20190;-85
2022/11/19 08:01:55;;;;;;;2.20;0.85;;;;;;;7.68;100.00;99869.78;4932031;29;20093;-85
2022/11/19 08:04:21;;;;;;;2.13;0.70;;;;;;;7.74;100.00;99872.66;4931171;29;20035;-85
2022/11/19 08:06:46;;;;;;;2.08;0.80;;;;;;;7.81;100.00;99862.53;4933300;29;20028;-85
2022/11/19 08:09:12;;;;;;;1.70;0.88;;;;;;;7.91;100.00;99860.72;4927855;29;20028;-85
2022/11/19 08:11:39;;;;;;;1.42;0.60;;;;;;;8.05;100.00;99855.06;4924943;29;20028;-84
2022/11/19 08:14:04;;;;;;;1.27;0.57;;;;;;;8.19;100.00;99864.16;4933085;29;20071;-85
2022/11/19 08:19:17;;;;;;;2.55;0.85;;;;;;;8.46;100.00;99864.19;4936102;29;20058;-84
2022/11/19 08:21:45;;;;;;;3.15;0.90;;;;;;;8.51;100.00;99868.91;4937705;29;20124;-84
2022/11/19 08:24:12;;;;;;;3.25;0.93;;;;;;;8.53;100.00;99867.00;4936195;29;20119;-84
2022/11/19 08:26:39;;;;;;;2.17;1.00;;;;;;;8.53;100.00;99867.00;4936013;29;21258;-84
2022/11/19 08:29:06;;;;;;;4.47;1.50;;;;;;;8.59;100.00;99869.84;4935064;29;20040;-84
2022/11/19 08:31:31;;;;;;;2.22;1.25;;;;;;;8.70;100.00;99874.00;4937730;29;20035;-84
2022/11/19 08:33:57;;;;;;;2.38;1.00;;;;;;;8.79;100.00;99873.13;4928856;29;20439;-84
2022/11/19 08:36:22;;;;;;;2.17;0.57;;;;;;;8.83;100.00;99873.66;4929038;29;20036;-83
2022/11/19 08:38:48;;;;;;;1.58;0.73;;;;;;;8.88;100.00;99864.47;4936063;29;20038;-84
2022/11/19 08:44:01;;;;;;;1.70;0.85;;;;;;;8.99;100.00;99872.00;4936796;29;20070;-88
2022/11/19 08:46:26;;;;;;;1.35;0.52;;;;;;;9.13;100.00;99882.84;4928947;29;20044;-86
2022/11/19 08:48:55;;;;;;;1.90;0.60;;;;;;;9.21;100.00;99875.94;4932316;28;20034;-87
2022/11/19 08:51:20;;;;;;;1.20;0.55;;;;;;;9.36;100.00;99878.00;4916730;29;20048;-87
2022/11/19 08:53:46;;;;;;;1.88;0.40;;;;;;;9.43;100.00;99879.88;4930383;29;20055;-88
2022/11/19 08:56:11;;;;;;;2.10;0.40;;;;;;;9.58;100.00;99880.91;4923045;29;20480;-87
2022/11/19 08:58:37;;;;;;;4.25;0.45;;;;;;;9.69;100.00;99879.03;4931127;29;20086;-87
2022/11/19 09:01:13;;;;;;;1.92;0.40;;;;;;;9.67;100.00;99865.38;4929944;29;20039;-88
2022/11/19 09:03:40;;;;;;;2.47;0.50;;;;;;;9.65;100.00;99868.94;4932511;29;20046;-88
2022/11/19 09:06:05;;;;;;;1.80;0.40;;;;;;;9.80;100.00;99884.00;4929612;28;20027;-87
2022/11/19 09:08:31;;;;;;;1.48;0.40;;;;;;;9.82;100.00;99880.28;4933511;28;20042;-86
2022/11/19 09:10:56;;;;;;;2.50;0.68;;;;;;;9.84;100.00;99877.53;4936766;29;20141;-86
2022/11/19 09:13:22;;;;;;;1.65;0.52;;;;;;;9.85;100.00;99871.34;4935846;28;20032;-86
2022/11/19 09:15:49;;;;;;;2.85;0.52;;;;;;;9.94;100.00;99873.81;4932361;29;20480;-86
2022/11/19 09:18:16;;;;;;;1.00;0.30;;;;;;;10.18;100.00;99874.91;4933719;29;20098;-86
2022/11/19 09:20:41;;;;;;;2.33;0.40;;;;;;;10.29;100.00;99875.50;4934269;29;20519;-86
2022/11/19 09:23:07;;;;;;;2.83;0.50;;;;;;;10.39;100.00;99890.19;4933123;29;20114;-86
2022/11/19 09:25:32;;;;;;;1.10;0.40;;;;;;;10.48;100.00;99873.59;4945784;28;20027;-87
2022/11/19 09:28:03;;;;;;;1.63;0.30;;;;;;;10.64;100.00;99881.47;4923030;29;20090;-87
2022/11/19 09:30:28;;;;;;;0.85;0.30;;;;;;;10.77;100.00;99876.59;4928439;29;20648;-86
2022/11/19 09:32:53;;;;;;;1.23;0.32;;;;;;;10.83;100.00;99873.38;4918576;28;20032;-85
2022/11/19 09:35:19;;;;;;;1.20;0.25;;;;;;;10.97;98.91;99877.94;4931511;28;20043;-85
2022/11/19 09:37:44;;;;;;;5.03;0.38;;;;;;;11.05;99.13;99874.50;4932053;29;20480;-85
2022/11/19 09:40:16;;;;;;;4.22;0.80;;;;;;;10.98;100.00;99874.34;4930508;29;20052;-85
2022/11/19 09:42:51;;;;;;;1.13;0.30;;;;;;;11.05;99.98;99881.53;4929925;29;20024;-85
2022/11/19 09:45:30;;;;;;;4.78;0.30;;;;;;;11.11;99.89;99873.06;4923754;29;20653;-85
2022/11/19 09:48:30;;;;;;;2.08;0.30;;;;;;;11.09;97.58;99864.56;4927077;29;20095;-85
2022/11/19 09:51:01;;;;;;;0.98;0.30;;;;;;;11.16;97.45;99862.97;4923111;29;20031;-86
2022/11/19 09:53:32;;;;;;;1.08;0.30;;;;;;;11.26;98.21;99861.00;4926271;29;20431;-86
2022/11/19 09:55:59;;;;;;;1.35;0.30;;;;;;;11.20;99.25;99851.22;4930019;29;20043;-85
2022/11/19 09:58:44;;;;;;;0.60;0.20;;;;;;;11.08;99.35;99853.34;4930333;29;20107;-85
2022/11/19 10:01:16;;;;;;;0.90;0.60;;;;;;;11.06;100.00;99847.47;4929248;29;20039;-85
2022/11/19 10:03:47;;;;;;;2.25;0.40;;;;;;;10.93;100.00;99836.69;4930099;29;20036;-85
2022/11/19 10:06:19;;;;;;;1.02;0.30;;;;;;;11.02;100.00;99827.09;4932599;29;20119;-86
2022/11/19 10:09:25;;;;;;;1.42;0.38;;;;;;;11.13;95.08;99824.16;4930375;29;20139;-85
2022/11/19 10:12:10;;;;;;;1.02;0.28;;;;;;;11.24;98.50;99822.06;4900298;28;20119;-86
2022/11/19 10:15:10;;;;;;;1.83;0.30;;;;;;;11.25;99.66;99828.09;4921613;29;20036;-85
2022/11/19 10:18:13;;;;;;;1.27;0.25;;;;;;;11.21;98.97;99826.78;4927331;29;20440;-86
2022/11/19 10:21:21;;;;;;;3.10;0.30;;;;;;;11.14;99.64;99815.38;4924923;29;20066;-86
2022/11/19 10:23:58;;;;;;;14.77;4.07;;;;;;;11.18;100.00;99819.28;4948586;28;20100;-85
2022/11/19 10:26:36;;;;;;;5.07;1.55;;;;;;;11.17;100.00;99828.91;4931842;29;20042;-86
2022/11/19 10:29:13;;;;;;;2.45;0.50;;;;;;;11.17;100.00;99825.47;4935930;29;20406;-85
2022/11/19 10:31:44;;;;;;;5.57;0.85;;;;;;;11.18;100.00;99827.91;4938085;29;20798;-86
2022/11/19 10:34:26;;;;;;;2.42;1.70;;;;;;;11.18;100.00;99829.72;4925512;29;20052;-86
2022/11/19 10:37:13;;;;;;;2.92;1.15;;;;;;;11.26;100.00;99830.53;4931554;29;22279;-86
2022/11/19 10:39:58;;;;;;;1.48;1.08;;;;;;;11.26;100.00;99827.91;4933541;29;20150;-86
2022/11/19 10:42:25;;;;;;;1.00;0.40;;;;;;;11.23;100.00;99825.63;4944721;28;20391;-87
2022/11/19 10:45:26;;;;;;;2.90;0.40;;;;;;;11.28;100.00;99814.72;4936171;28;20039;-86
2022/11/19 10:48:00;;;;;;;1.50;0.80;;;;;;;11.40;100.00;99797.72;4934853;29;20111;-86
2022/11/19 10:50:26;;;;;;;2.38;1.50;;;;;;;11.43;100.00;99804.41;4932646;29;20126;-86
2022/11/19 10:53:23;;;;;;;1.08;0.40;;;;;;;11.40;95.65;99787.28;4938461;29;20460;-86
2022/11/19 10:55:57;;;;;;;1.70;0.70;;;;;;;11.33;99.74;99786.34;4932183;29;20032;-86
2022/11/19 10:58:28;;;;;;;2.17;0.70;;;;;;;11.32;100.00;99778.69;4935796;29;20038;-86
2022/11/19 11:00:56;;;;;;;1.60;0.80;;;;;;;11.35;99.94;99773.13;4931945;29;20492;-86
2022/11/19 11:03:42;;;;;;;1.17;0.65;;;;;;;11.39;97.28;99777.84;4940413;29;20483;-86
2022/11/19 11:06:10;;;;;;;2.97;1.15;;;;;;;11.45;99.57;99764.13;4940628;29;20118;-86
2022/11/19 11:08:55;;;;;;;4.50;0.88;;;;;;;11.50;100.00;99764.44;4939779;29;20046;-85
2022/11/19 11:17:04;;;;;;;2.72;1.50;;;;;;;11.52;100.00;99762.50;4927595;29;20055;-86
2022/11/19 11:19:30;;;;;;;3.97;1.65;;;;;;;11.52;100.00;99765.09;4935098;28;20045;-85
2022/11/19 11:21:56;;;;;;;2.10;1.20;;;;;;;11.45;97.15;99761.53;4936473;29;20479;-85
2022/11/19 11:24:35;;;;;;;0.95;0.20;;;;;;;11.74;93.06;99762.75;4931311;29;20043;-85
2022/11/19 11:27:33;;;;;;;0.88;0.20;;;;;;;12.01;81.50;99749.28;4936691;29;20122;-85
2022/11/19 11:30:11;;;;;;;0.60;0.20;;;;;;;12.05;84.11;99742.72;4932395;29;20075;-84
2022/11/19 11:32:38;;;;;;;1.10;0.47;;;;;;;11.94;91.70;99753.56;4934584;29;20036;-86
2022/11/19 11:35:04;;;;;;;1.60;0.63;;;;;;;11.81;94.14;99737.66;4934495;29;20127;-85
2022/11/19 11:37:31;;;;;;;2.45;0.68;;;;;;;11.82;92.93;99734.03;4940118;28;20032;-85
2022/11/19 11:39:58;;;;;;;2.85;0.40;;;;;;;11.87;92.38;99729.09;4935371;29;20059;-85
2022/11/19 11:42:27;;;;;;;1.38;0.60;;;;;;;11.90;90.82;99737.41;4939358;28;20524;-86
2022/11/19 11:44:56;;;;;;;1.10;0.50;;;;;;;11.90;93.24;99737.41;4937499;28;20048;-85
2022/11/19 11:47:29;;;;;;;1.15;0.50;;;;;;;11.85;93.90;99739.72;4932105;29;20032;-85
2022/11/19 11:50:20;;;;;;;1.48;0.68;;;;;;;11.84;92.00;99739.88;4934818;28;20325;-85
2022/11/19 11:52:48;;;;;;;0.70;0.40;;;;;;;11.81;94.85;99743.69;4922309;29;20077;-86
2022/11/19 11:55:21;;;;;;;1.13;0.40;;;;;;;11.76;85.75;99726.88;4933436;29;20035;-86
2022/11/19 11:57:52;;;;;;;0.52;0.20;;;;;;;11.74;91.58;99736.66;4939037;29;20090;-85
2022/11/19 12:00:41;;;;;;;0.95;0.20;;;;;;;11.67;90.32;99748.75;4929294;29;20035;-87
2022/11/19 12:03:17;;;;;;;0.50;0.20;;;;;;;11.62;92.97;99757.91;4927573;29;20102;-85
2022/11/19 12:06:07;;;;;;;2.05;0.50;;;;;;;11.53;93.04;99756.28;4930771;29;20473;-85
2022/11/19 12:08:55;;;;;;;2.15;0.70;;;;;;;11.46;90.09;99754.50;4933161;29;20074;-86